Time;durP1;ratioP1;P1;durP2;ratioP2;P2;SDS_P1;SDS_P2;PMS_P1;PMS_P2;Temp;Humidity;BMP_temperature;BMP_pressure;BME280_temperature;BME280_humidity;BME280_pressure;Samples;Min_cycle;Max_cycle;Signal;HPM_P1;HPM_P2
2023/11/27 00:00:53;;;;;;;15.60;8.65;;;;;;;8.84;100.00;99775.03;5006731;28;21465;-42
2023/11/27 00:03:21;;;;;;;14.80;8.10;;;;;;;8.81;100.00;99769.47;5018722;28;20452;-42
2023/11/27 00:05:48;;;;;;;14.43;9.20;;;;;;;8.81;100.00;99763.94;5027026;28;20041;-41
2023/11/27 00:08:15;;;;;;;14.23;7.32;;;;;;;8.81;100.00;99770.25;5019904;28;20060;-42
2023/11/27 00:10:43;;;;;;;12.00;7.82;;;;;;;8.81;100.00;99755.66;5023835;28;20049;-45
2023/11/27 00:13:10;;;;;;;15.45;7.25;;;;;;;8.82;100.00;99765.53;5034826;28;20056;-42
2023/11/27 00:15:37;;;;;;;13.40;7.15;;;;;;;8.82;100.00;99760.81;5020129;28;20084;-45
2023/11/27 00:18:05;;;;;;;13.90;7.47;;;;;;;8.81;100.00;99759.22;5017795;28;20053;-45
2023/11/27 00:20:32;;;;;;;13.20;6.80;;;;;;;8.81;100.00;99745.44;5012313;28;20407;-45
2023/11/27 00:23:00;;;;;;;16.15;7.35;;;;;;;8.83;100.00;99745.06;5017928;28;20045;-44
2023/11/27 00:25:27;;;;;;;9.40;6.38;;;;;;;8.81;100.00;99739.91;5025896;28;20150;-43
2023/11/27 00:27:54;;;;;;;13.68;6.88;;;;;;;8.82;100.00;99741.50;5018096;28;20046;-43
2023/11/27 00:30:22;;;;;;;11.90;7.53;;;;;;;8.81;100.00;99736.34;5017204;28;20499;-43
2023/11/27 00:32:49;;;;;;;8.30;5.75;;;;;;;8.79;100.00;99733.91;5027792;28;20034;-43
2023/11/27 00:35:17;;;;;;;14.82;7.20;;;;;;;8.78;100.00;99732.34;5026086;28;20029;-45
2023/11/27 00:37:44;;;;;;;20.42;7.50;;;;;;;8.78;100.00;99732.34;5027483;28;20050;-44
2023/11/27 00:40:11;;;;;;;11.52;7.40;;;;;;;8.78;100.00;99732.34;5001220;28;20041;-42
2023/11/27 00:42:39;;;;;;;12.27;7.47;;;;;;;8.79;100.00;99739.44;5016136;28;20042;-44
2023/11/27 00:45:06;;;;;;;14.32;8.27;;;;;;;8.80;100.00;99729.22;5023902;28;20045;-41
2023/11/27 00:47:35;;;;;;;17.83;8.10;;;;;;;8.80;100.00;99720.94;5017546;28;20049;-41
2023/11/27 00:50:03;;;;;;;12.90;7.28;;;;;;;8.79;100.00;99717.38;5013304;28;20470;-43
2023/11/27 00:52:32;;;;;;;21.55;9.10;;;;;;;8.79;100.00;99722.88;5010174;28;20057;-47
2023/11/27 00:54:59;;;;;;;17.45;8.35;;;;;;;8.79;100.00;99722.88;5027668;28;21093;-42
2023/11/27 00:57:27;;;;;;;15.80;8.52;;;;;;;8.78;100.00;99721.31;5026931;28;20056;-42
2023/11/27 00:59:54;;;;;;;12.02;7.95;;;;;;;8.80;100.00;99724.50;5027164;28;20069;-42
2023/11/27 01:02:21;;;;;;;16.80;8.48;;;;;;;8.79;100.00;99722.09;5014100;28;20062;-43
2023/11/27 01:04:49;;;;;;;13.88;8.43;;;;;;;8.79;100.00;99722.88;5026770;28;20053;-43
2023/11/27 01:07:16;;;;;;;13.68;8.30;;;;;;;8.79;100.00;99711.84;5027559;28;20060;-42
2023/11/27 01:09:43;;;;;;;13.80;6.60;;;;;;;8.79;100.00;99716.59;5026845;28;20050;-43
2023/11/27 01:12:10;;;;;;;14.90;7.13;;;;;;;8.78;100.00;99714.97;5023074;28;20699;-41
2023/11/27 01:14:38;;;;;;;13.82;6.35;;;;;;;8.77;100.00;99713.38;5026768;28;20044;-43
2023/11/27 01:17:05;;;;;;;16.42;6.85;;;;;;;8.77;100.00;99716.13;5027423;28;20065;-42
2023/11/27 01:19:34;;;;;;;11.18;5.93;;;;;;;8.79;100.00;99711.06;5018668;28;20045;-43
2023/11/27 01:22:01;;;;;;;9.30;6.00;;;;;;;8.78;100.00;99701.97;5019556;28;20760;-43
2023/11/27 01:24:28;;;;;;;11.60;6.18;;;;;;;8.77;100.00;99707.84;5019034;28;20049;-42
2023/11/27 01:26:56;;;;;;;12.38;5.72;;;;;;;8.75;100.00;99693.59;5023946;28;20080;-45
2023/11/27 01:29:23;;;;;;;7.85;4.78;;;;;;;8.75;100.00;99699.13;5016642;28;20058;-42
2023/11/27 01:31:50;;;;;;;12.13;5.40;;;;;;;8.75;100.00;99702.69;5026885;28;20827;-44
2023/11/27 01:34:17;;;;;;;12.50;6.35;;;;;;;8.74;100.00;99698.31;5026909;28;20052;-45
2023/11/27 01:36:45;;;;;;;7.47;4.95;;;;;;;8.73;100.00;99695.94;5026053;28;20049;-45
2023/11/27 01:39:12;;;;;;;9.15;5.20;;;;;;;8.72;100.00;99699.84;5026487;28;20058;-45
2023/11/27 01:41:40;;;;;;;12.63;5.10;;;;;;;8.71;100.00;99696.28;5026158;28;20052;-46
2023/11/27 01:44:08;;;;;;;10.70;4.50;;;;;;;8.69;100.00;99687.56;5016772;28;20049;-44
2023/11/27 01:46:48;;;;;;;9.02;4.93;;;;;;;8.69;100.00;99700.56;4993766;28;20045;-42
2023/11/27 01:49:18;;;;;;;12.30;6.57;;;;;;;8.70;100.00;99697.44;5009904;28;20057;-42
2023/11/27 01:51:46;;;;;;;9.80;5.75;;;;;;;8.71;100.00;99696.28;5026584;28;20050;-44
2023/11/27 01:54:17;;;;;;;9.00;5.32;;;;;;;8.70;100.00;99694.69;5026778;28;20056;-42
2023/11/27 01:56:48;;;;;;;6.90;4.85;;;;;;;8.70;100.00;99697.44;5026053;28;20049;-42
2023/11/27 01:59:16;;;;;;;11.35;5.18;;;;;;;8.69;100.00;99693.09;5029603;28;20056;-44
2023/11/27 02:01:43;;;;;;;9.68;5.00;;;;;;;8.69;100.00;99695.84;5012645;28;20620;-44
2023/11/27 02:04:11;;;;;;;6.80;4.93;;;;;;;8.69;100.00;99693.09;5027829;28;20042;-42
2023/11/27 02:06:39;;;;;;;6.72;3.50;;;;;;;8.67;100.00;99691.84;5019220;28;20053;-43
2023/11/27 02:09:07;;;;;;;8.35;4.03;;;;;;;8.65;100.00;99692.22;5012826;28;20122;-43
2023/11/27 02:11:47;;;;;;;7.75;4.43;;;;;;;8.65;100.00;99694.97;5000299;28;20060;-45
2023/11/27 02:14:16;;;;;;;8.48;4.18;;;;;;;8.66;100.00;99690.25;5028045;28;20081;-42
2023/11/27 02:16:46;;;;;;;7.05;4.03;;;;;;;8.67;100.00;99680.81;5029794;28;20533;-43
2023/11/27 02:19:14;;;;;;;7.10;3.53;;;;;;;8.67;100.00;99684.38;5009074;28;20395;-43
2023/11/27 02:21:42;;;;;;;7.25;4.25;;;;;;;8.65;100.00;99689.44;5022624;28;20410;-43
2023/11/27 02:24:09;;;;;;;6.00;3.70;;;;;;;8.65;100.00;99683.94;5017030;28;20391;-42
2023/11/27 02:26:37;;;;;;;5.50;3.30;;;;;;;8.63;100.00;99677.16;5030293;28;20049;-43
2023/11/27 02:29:05;;;;;;;5.65;3.33;;;;;;;8.61;100.00;99677.50;5029879;28;20052;-42
2023/11/27 02:31:32;;;;;;;6.22;3.03;;;;;;;8.62;100.00;99683.84;5024532;28;20534;-47
2023/11/27 02:33:59;;;;;;;5.50;3.15;;;;;;;8.60;100.00;99678.69;5030754;28;20046;-47
2023/11/27 02:36:35;;;;;;;7.22;4.03;;;;;;;8.60;100.00;99680.66;5030124;28;20042;-45
2023/11/27 02:39:06;;;;;;;5.43;4.18;;;;;;;8.61;100.00;99677.50;5025570;28;20050;-44
2023/11/27 02:41:36;;;;;;;8.45;3.85;;;;;;;8.56;100.00;99672.28;5028976;28;20507;-44
2023/11/27 02:44:05;;;;;;;15.50;4.53;;;;;;;8.54;100.00;99669.06;5029976;28;20060;-43
2023/11/27 02:46:33;;;;;;;6.60;3.38;;;;;;;8.53;100.00;99667.47;5029764;28;20029;-44
2023/11/27 02:49:01;;;;;;;8.65;3.40;;;;;;;8.53;100.00;99664.72;5020541;28;20038;-45
2023/11/27 02:51:29;;;;;;;6.22;3.55;;;;;;;8.51;100.00;99667.03;5002017;28;20052;-44
2023/11/27 02:53:56;;;;;;;5.35;4.00;;;;;;;8.53;100.00;99659.19;5028251;28;20049;-47
2023/11/27 02:56:23;;;;;;;10.68;3.63;;;;;;;8.52;100.00;99657.59;4997298;28;20132;-48
2023/11/27 02:58:51;;;;;;;4.43;2.60;;;;;;;8.50;100.00;99660.72;5029996;28;20049;-47
2023/11/27 03:01:18;;;;;;;6.00;3.97;;;;;;;8.48;100.00;99660.28;5101780;23;20057;-43
2023/11/27 03:03:46;;;;;;;4.38;3.20;;;;;;;8.48;100.00;99654.75;5029714;28;20041;-43
2023/11/27 03:06:13;;;;;;;7.15;4.45;;;;;;;8.50;100.00;99654.38;5029840;28;20056;-44
2023/11/27 03:08:41;;;;;;;3.55;2.70;;;;;;;8.50;100.00;99651.63;5029480;28;20511;-42
2023/11/27 03:11:10;;;;;;;7.88;3.35;;;;;;;8.50;100.00;99651.63;5028581;28;20479;-43
2023/11/27 03:13:39;;;;;;;4.13;3.08;;;;;;;8.49;100.00;99655.56;5028715;28;20049;-44
2023/11/27 03:16:07;;;;;;;4.30;2.67;;;;;;;8.46;100.00;99648.81;5029385;28;20061;-42
2023/11/27 03:18:34;;;;;;;4.40;2.55;;;;;;;8.44;100.00;99644.81;5029444;28;20057;-42
2023/11/27 03:21:03;;;;;;;6.28;3.03;;;;;;;8.44;100.00;99642.84;5028862;28;20068;-42
2023/11/27 03:23:31;;;;;;;3.67;2.95;;;;;;;8.42;100.00;99644.34;5029019;28;20068;-42
2023/11/27 03:26:02;;;;;;;4.38;3.15;;;;;;;8.41;100.00;99640.81;5029524;28;20575;-42
2023/11/27 03:28:29;;;;;;;3.65;2.90;;;;;;;8.44;100.00;99628.25;5029046;28;20045;-42
2023/11/27 03:30:56;;;;;;;3.63;2.92;;;;;;;8.44;100.00;99633.78;5029509;28;20049;-42
2023/11/27 03:33:24;;;;;;;5.18;2.67;;;;;;;8.43;100.00;99643.19;5030925;28;20529;-44
2023/11/27 03:35:51;;;;;;;7.15;3.38;;;;;;;8.42;100.00;99641.56;5032494;28;20053;-42
2023/11/27 03:38:18;;;;;;;5.70;2.90;;;;;;;8.40;100.00;99633.69;5028470;28;20057;-43
2023/11/27 03:40:45;;;;;;;2.63;2.13;;;;;;;8.38;100.00;99641.50;5028270;28;20045;-45
2023/11/27 03:43:13;;;;;;;3.65;2.47;;;;;;;8.37;100.00;99641.84;5025200;28;20049;-43
2023/11/27 03:45:41;;;;;;;4.00;2.03;;;;;;;8.38;100.00;99643.47;5024169;28;20049;-42
2023/11/27 03:48:08;;;;;;;6.18;2.50;;;;;;;8.38;100.00;99641.50;5028568;28;20518;-43
2023/11/27 03:50:36;;;;;;;2.53;1.80;;;;;;;8.38;100.00;99635.19;5028767;28;20085;-44
2023/11/27 03:53:04;;;;;;;5.85;2.15;;;;;;;8.39;100.00;99636.81;5027408;28;20061;-44
2023/11/27 03:55:31;;;;;;;3.58;1.73;;;;;;;8.37;100.00;99639.91;5019568;28;20052;-42
2023/11/27 03:57:58;;;;;;;2.85;1.52;;;;;;;8.39;100.00;99643.09;5028078;28;20060;-43
2023/11/27 04:00:26;;;;;;;5.00;2.17;;;;;;;8.39;100.00;99643.09;5028364;28;20049;-44
2023/11/27 04:02:53;;;;;;;3.75;2.13;;;;;;;8.39;100.00;99634.81;5028202;28;20057;-46
2023/11/27 04:05:20;;;;;;;5.93;2.28;;;;;;;8.39;100.00;99636.81;5028196;28;20403;-48
2023/11/27 04:07:47;;;;;;;2.33;1.80;;;;;;;8.36;100.00;99623.72;5026718;28;20053;-48
2023/11/27 04:10:16;;;;;;;2.78;2.08;;;;;;;8.35;100.00;99625.69;5028469;28;20511;-48
2023/11/27 04:12:43;;;;;;;2.85;2.22;;;;;;;8.37;100.00;99630.81;5027806;28;20041;-43
2023/11/27 04:15:12;;;;;;;4.20;1.95;;;;;;;8.37;100.00;99628.88;5027287;28;20056;-44
2023/11/27 04:17:39;;;;;;;2.70;2.10;;;;;;;8.38;100.00;99611.19;5027353;28;20049;-43
2023/11/27 04:20:07;;;;;;;4.53;2.10;;;;;;;8.40;100.00;99610.81;5028152;28;20507;-45
2023/11/27 04:22:34;;;;;;;3.03;2.08;;;;;;;8.39;100.00;99614.75;5006421;28;20092;-44
2023/11/27 04:25:01;;;;;;;2.08;1.73;;;;;;;8.39;100.00;99628.53;5025404;28;20049;-44
2023/11/27 04:27:29;;;;;;;4.07;2.20;;;;;;;8.37;100.00;99614.28;4999618;28;20046;-43
2023/11/27 04:29:56;;;;;;;6.13;2.67;;;;;;;8.37;100.00;99623.34;5027050;28;20038;-43
2023/11/27 04:32:25;;;;;;;4.30;2.15;;;;;;;8.37;100.00;99617.03;5027833;28;20132;-43
2023/11/27 04:34:53;;;;;;;2.15;1.92;;;;;;;8.38;100.00;99619.44;5027996;28;20533;-43
2023/11/27 04:37:20;;;;;;;4.80;1.90;;;;;;;8.39;100.00;99623.00;5028156;28;20038;-43
2023/11/27 04:39:49;;;;;;;3.17;1.55;;;;;;;8.39;100.00;99621.03;5027076;28;20407;-43
2023/11/27 04:42:17;;;;;;;2.00;1.70;;;;;;;8.38;100.00;99610.38;5027542;28;20411;-43
2023/11/27 04:44:44;;;;;;;5.28;2.17;;;;;;;8.36;100.00;99608.00;5026865;28;20522;-43
2023/11/27 04:47:11;;;;;;;5.20;2.28;;;;;;;8.37;100.00;99611.53;5027433;28;20080;-46
2023/11/27 04:49:39;;;;;;;2.88;2.03;;;;;;;8.33;100.00;99607.88;5035202;28;20060;-43
2023/11/27 04:52:06;;;;;;;4.03;1.77;;;;;;;8.33;100.00;99610.66;5032156;28;20065;-44
2023/11/27 04:54:34;;;;;;;2.08;1.50;;;;;;;8.34;100.00;99615.03;5026269;28;20053;-44
2023/11/27 04:57:01;;;;;;;2.42;1.90;;;;;;;8.32;100.00;99609.84;5026951;28;20057;-44
2023/11/27 04:59:29;;;;;;;3.88;2.47;;;;;;;8.34;100.00;99607.53;5027634;28;20041;-43
2023/11/27 05:01:57;;;;;;;3.75;2.78;;;;;;;8.34;100.00;99617.78;5027504;28;20058;-44
2023/11/27 05:04:24;;;;;;;3.88;2.47;;;;;;;8.33;100.00;99624.44;5026221;28;20060;-44
2023/11/27 05:06:51;;;;;;;3.40;2.22;;;;;;;8.33;100.00;99621.69;5027613;28;21017;-45
2023/11/27 05:09:19;;;;;;;3.55;1.85;;;;;;;8.33;100.00;99605.13;5027224;28;20422;-43
2023/11/27 05:11:47;;;;;;;2.92;1.95;;;;;;;8.32;100.00;99606.28;5018154;28;20510;-43
2023/11/27 05:14:14;;;;;;;3.58;2.20;;;;;;;8.33;100.00;99607.88;5027278;28;20053;-44
2023/11/27 05:16:41;;;;;;;3.80;2.28;;;;;;;8.32;100.00;99611.78;5026399;28;20048;-44
2023/11/27 05:19:09;;;;;;;4.68;1.95;;;;;;;8.32;100.00;99609.03;5018325;28;20057;-46
2023/11/27 05:21:36;;;;;;;3.45;1.90;;;;;;;8.32;100.00;99598.00;5009497;28;20053;-45
2023/11/27 05:24:04;;;;;;;2.65;1.58;;;;;;;8.29;100.00;99599.53;5026705;28;20061;-44
2023/11/27 05:26:31;;;;;;;1.92;1.73;;;;;;;8.31;100.00;99590.91;5026825;28;20056;-43
2023/11/27 05:28:58;;;;;;;1.67;1.42;;;;;;;8.31;100.00;99596.44;5014407;28;20049;-43
2023/11/27 05:31:25;;;;;;;2.47;1.80;;;;;;;8.31;100.00;99588.94;5026613;28;20049;-47
2023/11/27 05:33:53;;;;;;;2.72;1.80;;;;;;;8.28;100.00;99592.44;5029417;28;20399;-48
2023/11/27 05:36:21;;;;;;;4.57;1.85;;;;;;;8.26;100.00;99593.91;5032132;28;20491;-48
2023/11/27 05:38:48;;;;;;;2.15;1.58;;;;;;;8.24;100.00;99585.19;5042902;28;20052;-44
2023/11/27 05:41:17;;;;;;;2.10;1.58;;;;;;;8.21;100.00;99585.88;5030970;28;20060;-43
2023/11/27 05:43:44;;;;;;;1.33;1.20;;;;;;;8.19;100.00;99580.75;5030593;28;20835;-51
2023/11/27 05:46:12;;;;;;;3.00;1.30;;;;;;;8.19;100.00;99577.19;5032357;28;20052;-43
2023/11/27 05:48:39;;;;;;;1.55;1.30;;;;;;;8.18;100.00;99570.09;5033282;28;20046;-42
2023/11/27 05:51:07;;;;;;;2.05;1.20;;;;;;;8.18;100.00;99570.84;5030211;28;20041;-42
2023/11/27 05:53:34;;;;;;;3.35;1.58;;;;;;;8.18;100.00;99568.09;5030230;28;20049;-42
2023/11/27 05:56:04;;;;;;;2.30;1.75;;;;;;;8.18;100.00;99557.06;5030517;28;20041;-42
2023/11/27 05:58:31;;;;;;;2.20;1.38;;;;;;;8.16;100.00;99567.66;5030216;28;20061;-47
2023/11/27 06:00:58;;;;;;;2.80;1.45;;;;;;;8.15;100.00;99570.78;5035983;28;20526;-43
2023/11/27 06:03:27;;;;;;;3.08;1.70;;;;;;;8.16;100.00;99566.88;5030930;28;20132;-43
2023/11/27 06:05:54;;;;;;;2.67;1.42;;;;;;;8.16;100.00;99561.34;5029409;28;20045;-43
2023/11/27 06:08:22;;;;;;;2.88;1.83;;;;;;;8.16;100.00;99564.91;5030136;28;20515;-42
2023/11/27 06:10:49;;;;;;;2.88;1.75;;;;;;;8.17;100.00;99563.78;5030117;28;20390;-44
2023/11/27 06:13:16;;;;;;;1.85;1.73;;;;;;;8.18;100.00;99556.31;5030622;28;20056;-42
2023/11/27 06:15:46;;;;;;;2.28;1.90;;;;;;;8.18;100.00;99559.84;5008305;28;20058;-42
2023/11/27 06:18:14;;;;;;;2.97;2.38;;;;;;;8.17;100.00;99561.00;5030475;28;20049;-42
2023/11/27 06:20:42;;;;;;;2.78;1.85;;;;;;;8.18;100.00;99570.84;5029237;28;20045;-45
2023/11/27 06:23:09;;;;;;;4.88;2.70;;;;;;;8.19;100.00;99568.91;5030031;28;20053;-42
2023/11/27 06:25:36;;;;;;;2.85;1.85;;;;;;;8.17;100.00;99590.53;5029585;28;20046;-43
2023/11/27 06:28:04;;;;;;;2.15;1.60;;;;;;;8.18;100.00;99589.38;5029471;28;20037;-43
2023/11/27 06:30:31;;;;;;;3.15;2.13;;;;;;;8.20;100.00;99589.81;5029502;28;20041;-43
2023/11/27 06:32:58;;;;;;;2.25;1.85;;;;;;;8.19;100.00;99588.22;5030259;28;20045;-43
2023/11/27 06:35:26;;;;;;;3.05;2.15;;;;;;;8.20;100.00;99584.31;5029280;28;20485;-42
2023/11/27 06:37:53;;;;;;;2.20;1.60;;;;;;;8.19;100.00;99590.97;5029440;28;20403;-43
2023/11/27 06:40:21;;;;;;;1.95;1.40;;;;;;;8.19;100.00;99579.94;5034237;28;20045;-44
2023/11/27 06:43:00;;;;;;;1.88;1.50;;;;;;;8.19;100.00;99589.00;5029593;28;20049;-43
2023/11/27 06:45:27;;;;;;;1.40;1.15;;;;;;;8.19;100.00;99586.25;5028619;28;20057;-43
2023/11/27 06:47:54;;;;;;;1.67;1.20;;;;;;;8.19;100.00;99585.44;5029470;28;20056;-43
2023/11/27 06:50:22;;;;;;;1.35;1.15;;;;;;;8.20;100.00;99585.13;5029096;28;20053;-43
2023/11/27 06:52:49;;;;;;;1.70;1.10;;;;;;;8.19;100.00;99578.00;5029188;28;20061;-44
2023/11/27 06:55:16;;;;;;;2.00;1.38;;;;;;;8.22;100.00;99587.50;5029805;28;20359;-43
2023/11/27 06:57:43;;;;;;;1.58;1.10;;;;;;;8.24;100.00;99579.66;5029045;28;20406;-45
2023/11/27 07:00:11;;;;;;;2.22;1.80;;;;;;;8.25;100.00;99581.28;5028925;28;20053;-43
2023/11/27 07:02:40;;;;;;;4.53;1.38;;;;;;;8.24;100.00;99579.66;5028959;28;20056;-44
2023/11/27 07:05:09;;;;;;;2.08;1.40;;;;;;;8.24;100.00;99579.66;5028855;28;20135;-43
2023/11/27 07:07:36;;;;;;;1.70;1.02;;;;;;;8.24;100.00;99585.97;5029837;28;20045;-43
2023/11/27 07:10:04;;;;;;;2.65;1.20;;;;;;;8.24;100.00;99576.91;5029949;28;20053;-44
2023/11/27 07:12:32;;;;;;;1.98;1.13;;;;;;;8.24;100.00;99591.50;5028185;28;20045;-44
2023/11/27 07:14:59;;;;;;;2.63;1.10;;;;;;;8.25;100.00;99592.31;5028443;28;20073;-45
2023/11/27 07:17:26;;;;;;;2.85;1.40;;;;;;;8.27;100.00;99595.53;5028966;28;20049;-43
2023/11/27 07:19:54;;;;;;;4.47;1.30;;;;;;;8.26;100.00;99589.19;5028223;28;20055;-44
2023/11/27 07:22:21;;;;;;;4.13;2.33;;;;;;;8.27;100.00;99584.50;5028713;28;20053;-44
2023/11/27 07:24:50;;;;;;;2.92;1.48;;;;;;;8.28;100.00;99595.19;5028745;28;20049;-43
2023/11/27 07:27:18;;;;;;;1.48;1.10;;;;;;;8.30;100.00;99603.09;5031005;28;20071;-48
2023/11/27 07:29:47;;;;;;;1.80;1.30;;;;;;;8.28;100.00;99599.91;5026870;28;20136;-45
2023/11/27 07:32:15;;;;;;;2.75;1.60;;;;;;;8.27;100.00;99601.03;5028226;28;20045;-44
2023/11/27 07:34:43;;;;;;;3.80;1.45;;;;;;;8.27;100.00;99595.53;5027419;28;20045;-44
2023/11/27 07:37:10;;;;;;;1.77;1.33;;;;;;;8.27;100.00;99595.53;5027525;28;20057;-45
2023/11/27 07:39:37;;;;;;;1.33;1.20;;;;;;;8.25;100.00;99603.34;5028890;28;20046;-43
2023/11/27 07:42:05;;;;;;;2.13;1.48;;;;;;;8.25;100.00;99603.34;5024269;28;20045;-45
2023/11/27 07:44:32;;;;;;;2.22;1.50;;;;;;;8.27;100.00;99601.03;5027593;28;20083;-44
2023/11/27 07:47:00;;;;;;;2.78;1.10;;;;;;;8.27;100.00;99609.31;5031129;28;20046;-43
2023/11/27 07:49:27;;;;;;;3.47;1.38;;;;;;;8.28;100.00;99613.69;5028518;28;20060;-43
2023/11/27 07:51:57;;;;;;;1.17;1.08;;;;;;;8.28;100.00;99617.25;5027641;28;20068;-43
2023/11/27 07:54:25;;;;;;;4.13;1.52;;;;;;;8.28;100.00;99624.72;5028629;28;20076;-44
2023/11/27 07:56:53;;;;;;;3.22;2.28;;;;;;;8.27;100.00;99634.13;5027637;28;20049;-44
2023/11/27 07:59:20;;;;;;;2.90;2.17;;;;;;;8.26;100.00;99638.03;5027753;28;20495;-43
2023/11/27 08:01:48;;;;;;;3.92;2.53;;;;;;;8.25;100.00;99636.41;5028005;28;20567;-44
2023/11/27 08:04:15;;;;;;;4.30;2.72;;;;;;;8.25;100.00;99634.47;5027300;28;20483;-44
2023/11/27 08:06:44;;;;;;;4.95;3.30;;;;;;;8.24;100.00;99632.03;5026210;28;20057;-43
2023/11/27 08:09:12;;;;;;;5.47;3.25;;;;;;;8.24;100.00;99638.38;5030014;28;20052;-43
2023/11/27 08:11:39;;;;;;;5.90;3.33;;;;;;;8.26;100.00;99649.06;5026761;28;20078;-43
2023/11/27 08:14:06;;;;;;;5.93;3.78;;;;;;;8.24;100.00;99646.63;5014608;28;20041;-43
2023/11/27 08:16:33;;;;;;;5.72;3.70;;;;;;;8.25;100.00;99648.25;5027053;28;20503;-43
2023/11/27 08:19:01;;;;;;;5.03;2.80;;;;;;;8.23;100.00;99649.75;5024538;28;20415;-46
2023/11/27 08:21:28;;;;;;;1.90;1.48;;;;;;;8.22;100.00;99653.66;5022320;28;20049;-44
2023/11/27 08:23:56;;;;;;;2.63;2.03;;;;;;;8.22;100.00;99653.66;5024638;28;20037;-43
2023/11/27 08:26:27;;;;;;;2.75;1.80;;;;;;;8.20;100.00;99651.28;5027710;28;20053;-47
2023/11/27 08:28:54;;;;;;;1.58;1.23;;;;;;;8.20;100.00;99656.00;5026840;28;20504;-44
2023/11/27 08:31:28;;;;;;;1.42;1.02;;;;;;;8.19;100.00;99643.34;5027118;28;20057;-44
2023/11/27 08:33:55;;;;;;;2.00;1.10;;;;;;;8.17;100.00;99640.16;5003775;28;20084;-43
2023/11/27 08:36:27;;;;;;;1.33;1.00;;;;;;;8.15;100.00;99648.78;5027590;28;20065;-43
2023/11/27 08:38:58;;;;;;;1.33;0.82;;;;;;;8.13;100.00;99653.06;5027220;28;20380;-44
2023/11/27 08:41:25;;;;;;;1.02;0.70;;;;;;;8.09;100.00;99654.91;5026394;28;20391;-43
2023/11/27 08:43:52;;;;;;;1.42;0.80;;;;;;;8.08;100.00;99669.84;5027399;28;20049;-43
2023/11/27 08:46:19;;;;;;;2.33;0.60;;;;;;;8.07;100.00;99659.97;5027728;28;20104;-44
2023/11/27 08:48:47;;;;;;;3.97;0.90;;;;;;;8.05;100.00;99659.53;5019117;28;20038;-43
2023/11/27 08:51:14;;;;;;;2.85;0.60;;;;;;;8.03;100.00;99668.16;5027310;28;20052;-43
2023/11/27 08:53:41;;;;;;;1.52;0.65;;;;;;;8.03;100.00;99657.13;5020436;28;20525;-44
2023/11/27 08:56:11;;;;;;;2.13;0.70;;;;;;;8.03;100.00;99657.13;5026703;28;20049;-43
2023/11/27 08:58:38;;;;;;;1.10;0.90;;;;;;;8.02;100.00;99666.56;5027444;28;20053;-49
2023/11/27 09:01:07;;;;;;;2.65;0.55;;;;;;;7.99;100.00;99676.31;5009355;28;20046;-47
2023/11/27 09:03:35;;;;;;;2.05;0.57;;;;;;;8.00;100.00;99674.38;5038615;28;20664;-44
2023/11/27 09:06:03;;;;;;;1.05;0.63;;;;;;;7.96;100.00;99679.81;5029725;28;20057;-44
2023/11/27 09:08:31;;;;;;;5.68;1.15;;;;;;;7.95;100.00;99678.19;5025570;28;20057;-44
2023/11/27 09:10:58;;;;;;;0.88;0.57;;;;;;;7.95;100.00;99669.13;5027475;28;20072;-44
2023/11/27 09:13:25;;;;;;;5.70;0.95;;;;;;;7.94;100.00;99689.59;5026998;28;20462;-48
2023/11/27 09:15:53;;;;;;;0.95;0.50;;;;;;;7.94;100.00;99695.09;5032119;28;20049;-44
2023/11/27 09:18:20;;;;;;;3.40;0.52;;;;;;;7.93;100.00;99691.53;5023368;28;20773;-44
2023/11/27 09:20:47;;;;;;;3.65;0.50;;;;;;;7.90;100.00;99695.00;5020662;28;20077;-44
2023/11/27 09:23:15;;;;;;;3.95;0.50;;;;;;;7.90;100.00;99702.44;5001973;28;20049;-44
2023/11/27 09:25:42;;;;;;;7.00;0.70;;;;;;;7.91;100.00;99687.53;5027013;28;20071;-44
2023/11/27 09:28:09;;;;;;;3.55;0.95;;;;;;;7.93;100.00;99702.56;5026978;28;20419;-43
2023/11/27 09:30:36;;;;;;;1.85;0.57;;;;;;;7.92;100.00;99706.47;5026457;28;20041;-45
2023/11/27 09:33:04;;;;;;;3.03;1.27;;;;;;;7.91;100.00;99704.88;5027003;28;20053;-43
2023/11/27 09:35:31;;;;;;;2.67;0.60;;;;;;;7.94;100.00;99703.38;5014219;28;20049;-45
2023/11/27 09:38:00;;;;;;;3.95;0.82;;;;;;;7.90;100.00;99706.00;5027297;28;20045;-44
2023/11/27 09:40:38;;;;;;;2.53;0.85;;;;;;;7.91;100.00;99702.13;5027004;28;20053;-43
2023/11/27 09:43:05;;;;;;;4.85;1.27;;;;;;;7.92;100.00;99706.47;5027023;28;20060;-44
2023/11/27 09:45:39;;;;;;;2.08;1.00;;;;;;;7.92;100.00;99706.47;5027303;28;20041;-43
2023/11/27 09:48:10;;;;;;;3.40;0.73;;;;;;;7.95;100.00;99716.78;5038927;28;20056;-43
2023/11/27 09:50:39;;;;;;;;;;;;;;;7.94;100.00;99722.66;5027407;28;20526;-43
2023/11/27 09:53:10;;;;;;;1.75;0.82;;;;;;;7.93;100.00;99732.88;5039538;28;19928;-43
2023/11/27 09:55:38;;;;;;;2.83;0.88;;;;;;;7.95;100.00;99735.25;5019373;28;20058;-43
2023/11/27 09:58:10;;;;;;;2.63;0.63;;;;;;;7.96;100.00;99740.44;5025295;28;20048;-45
2023/11/27 10:00:41;;;;;;;3.10;0.85;;;;;;;7.95;100.00;99752.59;5026078;28;20073;-44
2023/11/27 10:03:09;;;;;;;0.75;0.68;;;;;;;7.98;100.00;99749.16;5010632;28;20049;-44
2023/11/27 10:05:37;;;;;;;1.42;0.73;;;;;;;7.96;100.00;99754.22;5020603;28;20069;-44
2023/11/27 10:08:08;;;;;;;3.13;0.73;;;;;;;7.98;100.00;99762.94;5034032;28;20525;-45
2023/11/27 10:10:36;;;;;;;1.17;0.75;;;;;;;7.98;100.00;99762.94;5031116;28;20511;-44
2023/11/27 10:13:03;;;;;;;3.10;0.65;;;;;;;7.99;100.00;99769.25;5026296;28;20050;-44
2023/11/27 10:15:47;;;;;;;3.03;0.73;;;;;;;8.01;100.00;99774.41;5026569;28;20037;-44
2023/11/27 10:18:18;;;;;;;2.42;0.60;;;;;;;8.02;100.00;99771.31;5027193;28;20042;-43
2023/11/27 10:20:49;;;;;;;3.03;1.02;;;;;;;8.06;100.00;99768.63;5030398;28;20051;-45
2023/11/27 10:23:17;;;;;;;1.27;0.60;;;;;;;8.08;100.00;99774.59;5041773;28;20506;-43
2023/11/27 10:25:45;;;;;;;4.38;1.25;;;;;;;8.08;100.00;99780.09;5030720;28;20064;-43
2023/11/27 10:28:12;;;;;;;3.00;0.70;;;;;;;8.07;100.00;99781.28;5023673;28;20046;-43
2023/11/27 10:30:45;;;;;;;;;;;;;;;8.02;100.00;99776.00;5018450;28;20041;-44
2023/11/27 10:33:12;;;;;;;3.05;0.73;;;;;;;8.03;100.00;99783.13;5029983;28;19928;-44
2023/11/27 10:35:41;;;;;;;2.22;0.63;;;;;;;7.98;100.00;99782.22;5016805;28;20053;-44
2023/11/27 10:38:16;;;;;;;4.57;1.33;;;;;;;7.99;100.00;99789.31;5041005;28;20506;-43
2023/11/27 10:40:43;;;;;;;2.92;0.80;;;;;;;8.04;100.00;99795.75;5030012;28;20064;-43
2023/11/27 10:43:11;;;;;;;3.42;0.80;;;;;;;8.06;100.00;99794.25;5029543;28;20045;-44
2023/11/27 10:45:40;;;;;;;3.35;0.70;;;;;;;8.00;100.00;99790.13;5039423;28;20044;-44
2023/11/27 10:48:09;;;;;;;1.17;0.60;;;;;;;7.93;100.00;99799.03;5031420;28;20053;-43
2023/11/27 10:50:41;;;;;;;4.60;1.48;;;;;;;7.90;100.00;99802.47;5029099;28;20530;-43
2023/11/27 10:53:10;;;;;;;3.58;0.70;;;;;;;7.92;100.00;99807.63;5016607;28;20045;-43
2023/11/27 10:55:38;;;;;;;1.45;0.60;;;;;;;7.95;100.00;99807.72;5018004;28;20053;-43
2023/11/27 10:58:07;;;;;;;1.48;0.40;;;;;;;8.02;100.00;99809.91;5041486;28;20056;-42
2023/11/27 11:00:46;;;;;;;1.95;0.90;;;;;;;8.06;100.00;99809.97;5022994;28;20045;-43
2023/11/27 11:03:23;;;;;;;2.35;0.85;;;;;;;8.09;100.00;99823.06;5017463;28;20049;-43
2023/11/27 11:05:52;;;;;;;4.68;0.88;;;;;;;8.07;100.00;99817.09;5029455;28;20049;-43
2023/11/27 11:08:26;;;;;;;3.63;0.82;;;;;;;8.00;100.00;99817.69;5024975;28;20057;-45
2023/11/27 11:10:55;;;;;;;2.40;0.70;;;;;;;7.98;100.00;99815.31;5029047;28;20426;-43
2023/11/27 11:13:25;;;;;;;1.98;0.85;;;;;;;7.99;100.00;99813.34;5029175;28;20049;-43
2023/11/27 11:16:18;;;;;;;2.78;0.75;;;;;;;7.98;100.00;99823.56;5034267;28;20076;-42
2023/11/27 11:18:57;;;;;;;2.00;1.17;;;;;;;7.95;100.00;99827.03;5027977;28;20064;-43
2023/11/27 11:21:47;;;;;;;3.67;0.98;;;;;;;7.95;100.00;99824.25;5016808;28;20057;-43
2023/11/27 11:24:47;;;;;;;2.80;0.98;;;;;;;7.92;100.00;99822.19;5022157;28;20388;-43
2023/11/27 11:27:24;;;;;;;7.18;0.82;;;;;;;7.92;100.00;99833.22;5027320;28;20053;-43
2023/11/27 11:29:53;;;;;;;2.90;1.10;;;;;;;7.94;100.00;99830.91;5041965;28;20052;-50
2023/11/27 11:32:27;;;;;;;3.63;0.80;;;;;;;7.95;100.00;99835.28;5021730;28;20050;-43
2023/11/27 11:34:58;;;;;;;3.42;1.50;;;;;;;7.98;100.00;99840.09;5023669;28;20591;-43
2023/11/27 11:37:28;;;;;;;1.30;1.00;;;;;;;7.98;100.00;99836.53;5029049;28;20058;-43